KSMN

Lemhi County Airport

Salmon, Idaho, USA
KSMN 181120Z 1812/1912 00000KT P6SM SKC FM182000 34005KT P6SM FEW250 FM190400 00000KT P6SM FEW250
Issued Valid From Valid To
Sep-18 @ 11:20 UTC
(4 hours ago)
Sep-18 @ 12:00 UTC
(4 hours ago)
Sep-19 @ 12:00 UTC
(in 20 hours)
Sep-18 @ 12:00 to Sep-18 @ 20:00
KSMN 181120Z 1812/1912 00000KT P6SM SKC
Visibility Clouds
Greater than 6 miles
  • Clear skies
From Sep-18 @ 20:00 to Sep-19 @ 04:00
FM182000 34005KT P6SM FEW250
Wind Visibility Clouds
340° at 5 knots Greater than 6 miles
  • Few at 25,000' AGL
From Sep-19 @ 04:00 to Sep-19 @ 12:00
FM190400 00000KT P6SM FEW250
Visibility Clouds
Greater than 6 miles
  • Few at 25,000' AGL
KSMN 181120Z 1812/1912 00000KT P6SM SKC FM182000 34005KT P6SM FEW250 FM190400 00000KT P6SM FEW250
Issued Sep-18 @ 11:20 UTC
(4 hours ago)
Valid From Sep-18 @ 12:00 UTC
(4 hours ago)
Valid To Sep-19 @ 12:00 UTC
(in 20 hours)
Sep-18 @ 12:00 - Sep-18 @ 20:00
Clouds
  • Clear skies
From Sep-18 @ 20:00 - Sep-19 @ 04:00
Wind Visibility
340° at 5 knots Greater than 6 miles
Clouds
  • Few at 25,000' AGL
From Sep-19 @ 04:00 - Sep-19 @ 12:00
Clouds
  • Few at 25,000' AGL